sensor_id;sensor_type;location;lat;lon;timestamp;P1;durP1;ratioP1;P2;durP2;ratioP2
50789;SDS011;37287;47.554;7.844;2024-02-14T00:02:41;3.50;;;2.40;;
50789;SDS011;37287;47.554;7.844;2024-02-14T00:05:09;4.72;;;2.42;;
50789;SDS011;37287;47.554;7.844;2024-02-14T00:07:37;4.75;;;2.78;;
50789;SDS011;37287;47.554;7.844;2024-02-14T00:10:06;3.13;;;2.63;;
50789;SDS011;37287;47.554;7.844;2024-02-14T00:12:33;4.38;;;2.70;;
50789;SDS011;37287;47.554;7.844;2024-02-14T00:15:04;2.05;;;1.95;;
50789;SDS011;37287;47.554;7.844;2024-02-14T00:17:35;2.53;;;2.22;;
50789;SDS011;37287;47.554;7.844;2024-02-14T00:20:03;4.30;;;2.20;;
50789;SDS011;37287;47.554;7.844;2024-02-14T00:22:30;2.83;;;1.92;;
50789;SDS011;37287;47.554;7.844;2024-02-14T00:24:57;2.25;;;1.90;;
50789;SDS011;37287;47.554;7.844;2024-02-14T00:27:24;4.35;;;2.40;;
50789;SDS011;37287;47.554;7.844;2024-02-14T00:29:53;2.67;;;2.28;;
50789;SDS011;37287;47.554;7.844;2024-02-14T00:32:21;3.95;;;2.30;;
50789;SDS011;37287;47.554;7.844;2024-02-14T00:34:48;4.40;;;2.38;;
50789;SDS011;37287;47.554;7.844;2024-02-14T00:37:16;2.88;;;2.08;;
50789;SDS011;37287;47.554;7.844;2024-02-14T00:39:43;3.50;;;2.20;;
50789;SDS011;37287;47.554;7.844;2024-02-14T00:42:10;3.75;;;2.70;;
50789;SDS011;37287;47.554;7.844;2024-02-14T00:44:37;4.25;;;2.70;;
50789;SDS011;37287;47.554;7.844;2024-02-14T00:47:04;2.92;;;2.40;;
50789;SDS011;37287;47.554;7.844;2024-02-14T00:49:33;4.25;;;2.67;;
50789;SDS011;37287;47.554;7.844;2024-02-14T00:52:01;4.97;;;2.80;;
50789;SDS011;37287;47.554;7.844;2024-02-14T00:54:28;5.38;;;2.90;;
50789;SDS011;37287;47.554;7.844;2024-02-14T00:56:55;3.60;;;2.55;;
50789;SDS011;37287;47.554;7.844;2024-02-14T00:59:21;4.38;;;2.75;;
50789;SDS011;37287;47.554;7.844;2024-02-14T01:01:48;3.03;;;2.40;;
50789;SDS011;37287;47.554;7.844;2024-02-14T01:04:15;5.57;;;2.90;;
50789;SDS011;37287;47.554;7.844;2024-02-14T01:06:41;4.38;;;2.60;;
50789;SDS011;37287;47.554;7.844;2024-02-14T01:09:08;4.53;;;2.55;;
50789;SDS011;37287;47.554;7.844;2024-02-14T01:11:35;3.15;;;2.47;;
50789;SDS011;37287;47.554;7.844;2024-02-14T01:14:04;4.22;;;2.72;;
50789;SDS011;37287;47.554;7.844;2024-02-14T01:16:31;4.72;;;2.60;;
50789;SDS011;37287;47.554;7.844;2024-02-14T01:18:58;3.65;;;2.85;;
50789;SDS011;37287;47.554;7.844;2024-02-14T01:21:25;2.63;;;2.22;;
50789;SDS011;37287;47.554;7.844;2024-02-14T01:23:51;3.47;;;2.35;;
50789;SDS011;37287;47.554;7.844;2024-02-14T01:26:18;4.55;;;3.15;;
50789;SDS011;37287;47.554;7.844;2024-02-14T01:28:47;3.22;;;2.38;;
50789;SDS011;37287;47.554;7.844;2024-02-14T01:31:14;5.03;;;2.65;;
50789;SDS011;37287;47.554;7.844;2024-02-14T01:33:41;2.65;;;2.35;;
50789;SDS011;37287;47.554;7.844;2024-02-14T01:36:10;8.25;;;3.13;;
50789;SDS011;37287;47.554;7.844;2024-02-14T01:38:36;3.20;;;2.45;;
50789;SDS011;37287;47.554;7.844;2024-02-14T01:41:03;4.20;;;2.80;;
50789;SDS011;37287;47.554;7.844;2024-02-14T01:43:30;7.93;;;2.85;;
50789;SDS011;37287;47.554;7.844;2024-02-14T01:46:01;3.25;;;2.42;;
50789;SDS011;37287;47.554;7.844;2024-02-14T01:48:31;4.18;;;2.80;;
50789;SDS011;37287;47.554;7.844;2024-02-14T01:51:00;4.00;;;2.85;;
50789;SDS011;37287;47.554;7.844;2024-02-14T01:53:29;6.32;;;3.53;;
50789;SDS011;37287;47.554;7.844;2024-02-14T01:55:57;5.13;;;2.90;;
50789;SDS011;37287;47.554;7.844;2024-02-14T01:58:25;4.93;;;3.00;;
50789;SDS011;37287;47.554;7.844;2024-02-14T02:00:53;4.95;;;2.95;;
50789;SDS011;37287;47.554;7.844;2024-02-14T02:03:23;6.43;;;3.25;;
50789;SDS011;37287;47.554;7.844;2024-02-14T02:05:53;4.45;;;3.13;;
50789;SDS011;37287;47.554;7.844;2024-02-14T02:08:22;6.05;;;3.33;;
50789;SDS011;37287;47.554;7.844;2024-02-14T02:10:48;3.92;;;2.67;;
50789;SDS011;37287;47.554;7.844;2024-02-14T02:13:15;3.65;;;2.60;;
50789;SDS011;37287;47.554;7.844;2024-02-14T02:15:42;4.03;;;2.85;;
50789;SDS011;37287;47.554;7.844;2024-02-14T02:18:12;5.05;;;2.97;;
50789;SDS011;37287;47.554;7.844;2024-02-14T02:20:39;3.72;;;3.05;;
50789;SDS011;37287;47.554;7.844;2024-02-14T02:23:10;4.28;;;3.00;;
50789;SDS011;37287;47.554;7.844;2024-02-14T02:25:43;2.90;;;2.60;;
50789;SDS011;37287;47.554;7.844;2024-02-14T02:28:10;5.07;;;2.53;;
50789;SDS011;37287;47.554;7.844;2024-02-14T02:30:37;4.55;;;3.03;;
50789;SDS011;37287;47.554;7.844;2024-02-14T02:33:04;3.85;;;3.08;;
50789;SDS011;37287;47.554;7.844;2024-02-14T02:35:32;3.63;;;2.45;;
50789;SDS011;37287;47.554;7.844;2024-02-14T02:38:00;4.85;;;2.60;;
50789;SDS011;37287;47.554;7.844;2024-02-14T02:40:27;4.45;;;2.55;;
50789;SDS011;37287;47.554;7.844;2024-02-14T02:42:54;4.10;;;2.20;;
50789;SDS011;37287;47.554;7.844;2024-02-14T02:45:21;3.60;;;2.20;;
50789;SDS011;37287;47.554;7.844;2024-02-14T02:47:48;2.67;;;1.90;;
50789;SDS011;37287;47.554;7.844;2024-02-14T02:50:18;2.97;;;2.22;;
50789;SDS011;37287;47.554;7.844;2024-02-14T02:52:46;3.22;;;2.47;;
50789;SDS011;37287;47.554;7.844;2024-02-14T02:55:13;4.95;;;2.30;;
50789;SDS011;37287;47.554;7.844;2024-02-14T02:57:43;2.30;;;2.10;;
50789;SDS011;37287;47.554;7.844;2024-02-14T03:00:12;2.90;;;2.33;;
50789;SDS011;37287;47.554;7.844;2024-02-14T03:02:40;2.17;;;1.98;;
50789;SDS011;37287;47.554;7.844;2024-02-14T03:05:11;3.53;;;2.22;;
50789;SDS011;37287;47.554;7.844;2024-02-14T03:07:44;5.00;;;2.55;;
50789;SDS011;37287;47.554;7.844;2024-02-14T03:10:11;2.15;;;1.67;;
50789;SDS011;37287;47.554;7.844;2024-02-14T03:12:41;2.25;;;1.75;;
50789;SDS011;37287;47.554;7.844;2024-02-14T03:15:07;2.45;;;1.83;;
50789;SDS011;37287;47.554;7.844;2024-02-14T03:17:37;3.78;;;2.10;;
50789;SDS011;37287;47.554;7.844;2024-02-14T03:20:04;6.53;;;2.17;;
50789;SDS011;37287;47.554;7.844;2024-02-14T03:22:43;5.97;;;2.38;;
50789;SDS011;37287;47.554;7.844;2024-02-14T03:25:17;2.10;;;1.85;;
50789;SDS011;37287;47.554;7.844;2024-02-14T03:27:45;2.25;;;2.00;;
50789;SDS011;37287;47.554;7.844;2024-02-14T03:30:14;1.85;;;1.67;;
50789;SDS011;37287;47.554;7.844;2024-02-14T03:32:44;3.85;;;2.00;;
50789;SDS011;37287;47.554;7.844;2024-02-14T03:35:12;2.65;;;1.95;;
50789;SDS011;37287;47.554;7.844;2024-02-14T03:37:42;7.28;;;2.40;;
50789;SDS011;37287;47.554;7.844;2024-02-14T03:40:10;4.30;;;2.78;;
50789;SDS011;37287;47.554;7.844;2024-02-14T03:42:38;3.17;;;2.33;;
50789;SDS011;37287;47.554;7.844;2024-02-14T03:45:08;3.72;;;2.70;;
50789;SDS011;37287;47.554;7.844;2024-02-14T03:47:35;2.60;;;2.00;;
50789;SDS011;37287;47.554;7.844;2024-02-14T03:50:07;2.33;;;2.00;;
50789;SDS011;37287;47.554;7.844;2024-02-14T03:52:34;2.60;;;2.40;;
50789;SDS011;37287;47.554;7.844;2024-02-14T03:55:01;6.30;;;2.55;;
50789;SDS011;37287;47.554;7.844;2024-02-14T03:57:29;3.05;;;2.00;;
50789;SDS011;37287;47.554;7.844;2024-02-14T03:59:56;2.63;;;2.38;;
50789;SDS011;37287;47.554;7.844;2024-02-14T04:02:27;2.63;;;2.13;;
50789;SDS011;37287;47.554;7.844;2024-02-14T04:04:55;3.30;;;2.58;;
50789;SDS011;37287;47.554;7.844;2024-02-14T04:07:21;2.85;;;2.10;;
50789;SDS011;37287;47.554;7.844;2024-02-14T04:09:48;3.08;;;2.17;;
50789;SDS011;37287;47.554;7.844;2024-02-14T04:12:15;2.08;;;1.88;;
50789;SDS011;37287;47.554;7.844;2024-02-14T04:14:42;3.55;;;2.17;;
50789;SDS011;37287;47.554;7.844;2024-02-14T04:17:09;2.75;;;1.85;;
50789;SDS011;37287;47.554;7.844;2024-02-14T04:19:37;2.83;;;2.00;;
50789;SDS011;37287;47.554;7.844;2024-02-14T04:22:05;4.20;;;1.98;;
50789;SDS011;37287;47.554;7.844;2024-02-14T04:24:35;3.53;;;1.98;;
50789;SDS011;37287;47.554;7.844;2024-02-14T04:27:02;3.35;;;2.00;;
50789;SDS011;37287;47.554;7.844;2024-02-14T04:29:31;2.10;;;1.90;;
50789;SDS011;37287;47.554;7.844;2024-02-14T04:32:00;2.53;;;2.17;;
50789;SDS011;37287;47.554;7.844;2024-02-14T04:34:27;2.80;;;1.90;;
50789;SDS011;37287;47.554;7.844;2024-02-14T04:36:54;2.80;;;2.00;;
50789;SDS011;37287;47.554;7.844;2024-02-14T04:39:21;3.10;;;2.10;;
50789;SDS011;37287;47.554;7.844;2024-02-14T04:41:48;5.03;;;2.80;;
50789;SDS011;37287;47.554;7.844;2024-02-14T04:44:27;5.63;;;2.55;;
50789;SDS011;37287;47.554;7.844;2024-02-14T04:46:54;3.65;;;2.58;;
50789;SDS011;37287;47.554;7.844;2024-02-14T04:49:22;3.45;;;2.17;;
50789;SDS011;37287;47.554;7.844;2024-02-14T04:51:49;5.38;;;2.30;;
50789;SDS011;37287;47.554;7.844;2024-02-14T04:54:16;2.40;;;2.20;;
50789;SDS011;37287;47.554;7.844;2024-02-14T04:56:43;3.35;;;2.20;;
50789;SDS011;37287;47.554;7.844;2024-02-14T04:59:12;1.95;;;1.80;;
50789;SDS011;37287;47.554;7.844;2024-02-14T05:01:39;2.83;;;2.20;;
50789;SDS011;37287;47.554;7.844;2024-02-14T05:04:06;4.07;;;2.20;;
50789;SDS011;37287;47.554;7.844;2024-02-14T05:06:33;5.30;;;2.40;;
50789;SDS011;37287;47.554;7.844;2024-02-14T05:09:00;5.53;;;2.22;;
50789;SDS011;37287;47.554;7.844;2024-02-14T05:11:27;2.38;;;2.17;;
50789;SDS011;37287;47.554;7.844;2024-02-14T05:13:53;3.22;;;2.08;;
50789;SDS011;37287;47.554;7.844;2024-02-14T05:16:20;2.95;;;2.20;;
50789;SDS011;37287;47.554;7.844;2024-02-14T05:18:47;3.28;;;1.90;;
50789;SDS011;37287;47.554;7.844;2024-02-14T05:21:14;3.45;;;2.03;;
50789;SDS011;37287;47.554;7.844;2024-02-14T05:23:41;2.17;;;1.98;;
50789;SDS011;37287;47.554;7.844;2024-02-14T05:26:11;2.67;;;2.10;;
50789;SDS011;37287;47.554;7.844;2024-02-14T05:28:38;3.65;;;2.17;;
50789;SDS011;37287;47.554;7.844;2024-02-14T05:31:05;3.38;;;2.40;;
50789;SDS011;37287;47.554;7.844;2024-02-14T05:33:32;3.25;;;2.30;;
50789;SDS011;37287;47.554;7.844;2024-02-14T05:35:59;2.70;;;2.08;;
50789;SDS011;37287;47.554;7.844;2024-02-14T05:38:25;4.10;;;2.10;;
50789;SDS011;37287;47.554;7.844;2024-02-14T05:40:53;2.50;;;2.05;;
50789;SDS011;37287;47.554;7.844;2024-02-14T05:43:20;4.15;;;2.42;;
50789;SDS011;37287;47.554;7.844;2024-02-14T05:45:47;2.65;;;2.17;;
50789;SDS011;37287;47.554;7.844;2024-02-14T05:48:13;4.40;;;1.90;;
50789;SDS011;37287;47.554;7.844;2024-02-14T05:50:41;3.22;;;2.03;;
50789;SDS011;37287;47.554;7.844;2024-02-14T05:53:07;2.25;;;1.90;;
50789;SDS011;37287;47.554;7.844;2024-02-14T05:55:34;4.18;;;2.00;;
50789;SDS011;37287;47.554;7.844;2024-02-14T05:58:01;2.63;;;2.00;;
50789;SDS011;37287;47.554;7.844;2024-02-14T06:00:28;3.33;;;2.00;;
50789;SDS011;37287;47.554;7.844;2024-02-14T06:02:55;4.63;;;2.25;;
50789;SDS011;37287;47.554;7.844;2024-02-14T06:05:22;4.72;;;2.47;;
50789;SDS011;37287;47.554;7.844;2024-02-14T06:07:49;2.88;;;2.22;;
50789;SDS011;37287;47.554;7.844;2024-02-14T06:10:16;3.08;;;2.28;;
50789;SDS011;37287;47.554;7.844;2024-02-14T06:12:44;3.22;;;2.47;;
50789;SDS011;37287;47.554;7.844;2024-02-14T06:15:12;3.17;;;2.30;;
50789;SDS011;37287;47.554;7.844;2024-02-14T06:17:39;3.63;;;2.38;;
50789;SDS011;37287;47.554;7.844;2024-02-14T06:20:06;3.33;;;2.10;;
50789;SDS011;37287;47.554;7.844;2024-02-14T06:22:34;5.07;;;2.30;;
50789;SDS011;37287;47.554;7.844;2024-02-14T06:25:12;3.20;;;1.83;;
50789;SDS011;37287;47.554;7.844;2024-02-14T06:27:39;3.35;;;2.33;;
50789;SDS011;37287;47.554;7.844;2024-02-14T06:30:06;3.78;;;2.22;;
50789;SDS011;37287;47.554;7.844;2024-02-14T06:32:34;2.40;;;2.20;;
50789;SDS011;37287;47.554;7.844;2024-02-14T06:35:02;3.22;;;2.20;;
50789;SDS011;37287;47.554;7.844;2024-02-14T06:37:30;3.85;;;2.40;;
50789;SDS011;37287;47.554;7.844;2024-02-14T06:40:10;3.95;;;2.30;;
50789;SDS011;37287;47.554;7.844;2024-02-14T06:42:37;3.65;;;2.17;;
50789;SDS011;37287;47.554;7.844;2024-02-14T06:45:04;2.17;;;1.73;;
50789;SDS011;37287;47.554;7.844;2024-02-14T06:47:32;2.55;;;2.15;;
50789;SDS011;37287;47.554;7.844;2024-02-14T06:50:00;3.45;;;2.28;;
50789;SDS011;37287;47.554;7.844;2024-02-14T06:52:26;4.10;;;2.30;;
50789;SDS011;37287;47.554;7.844;2024-02-14T06:54:53;2.40;;;2.13;;
50789;SDS011;37287;47.554;7.844;2024-02-14T06:57:20;3.90;;;2.60;;
50789;SDS011;37287;47.554;7.844;2024-02-14T06:59:46;3.22;;;2.42;;
50789;SDS011;37287;47.554;7.844;2024-02-14T07:02:13;3.05;;;2.15;;
50789;SDS011;37287;47.554;7.844;2024-02-14T07:04:40;2.95;;;2.40;;
50789;SDS011;37287;47.554;7.844;2024-02-14T07:07:07;5.30;;;2.55;;
50789;SDS011;37287;47.554;7.844;2024-02-14T07:09:34;2.67;;;2.30;;
50789;SDS011;37287;47.554;7.844;2024-02-14T07:12:05;7.40;;;2.60;;
50789;SDS011;37287;47.554;7.844;2024-02-14T07:14:32;3.88;;;3.03;;
50789;SDS011;37287;47.554;7.844;2024-02-14T07:16:59;3.25;;;2.53;;
50789;SDS011;37287;47.554;7.844;2024-02-14T07:19:25;4.90;;;2.90;;
50789;SDS011;37287;47.554;7.844;2024-02-14T07:21:52;3.70;;;3.13;;
50789;SDS011;37287;47.554;7.844;2024-02-14T07:24:19;3.78;;;2.80;;
50789;SDS011;37287;47.554;7.844;2024-02-14T07:26:46;7.65;;;3.28;;
50789;SDS011;37287;47.554;7.844;2024-02-14T07:29:12;6.78;;;3.40;;
50789;SDS011;37287;47.554;7.844;2024-02-14T07:31:39;3.10;;;2.63;;
50789;SDS011;37287;47.554;7.844;2024-02-14T07:34:06;4.20;;;2.90;;
50789;SDS011;37287;47.554;7.844;2024-02-14T07:36:35;3.38;;;2.65;;
50789;SDS011;37287;47.554;7.844;2024-02-14T07:39:02;2.70;;;2.42;;
50789;SDS011;37287;47.554;7.844;2024-02-14T07:41:30;4.10;;;2.67;;
50789;SDS011;37287;47.554;7.844;2024-02-14T07:43:57;5.25;;;2.80;;
50789;SDS011;37287;47.554;7.844;2024-02-14T07:46:24;3.47;;;2.33;;
50789;SDS011;37287;47.554;7.844;2024-02-14T07:48:52;4.28;;;2.40;;
50789;SDS011;37287;47.554;7.844;2024-02-14T07:51:20;5.07;;;2.33;;
50789;SDS011;37287;47.554;7.844;2024-02-14T07:53:48;3.03;;;2.22;;
50789;SDS011;37287;47.554;7.844;2024-02-14T07:56:16;4.45;;;2.60;;
50789;SDS011;37287;47.554;7.844;2024-02-14T07:58:44;3.47;;;2.55;;
50789;SDS011;37287;47.554;7.844;2024-02-14T08:01:11;4.68;;;3.20;;
50789;SDS011;37287;47.554;7.844;2024-02-14T08:03:39;8.65;;;4.68;;
50789;SDS011;37287;47.554;7.844;2024-02-14T08:06:06;7.18;;;4.60;;
50789;SDS011;37287;47.554;7.844;2024-02-14T08:08:34;5.72;;;4.32;;
50789;SDS011;37287;47.554;7.844;2024-02-14T08:11:01;5.57;;;3.47;;
50789;SDS011;37287;47.554;7.844;2024-02-14T08:13:28;5.13;;;3.40;;
50789;SDS011;37287;47.554;7.844;2024-02-14T08:15:55;6.00;;;3.50;;
50789;SDS011;37287;47.554;7.844;2024-02-14T08:18:22;3.65;;;3.30;;
50789;SDS011;37287;47.554;7.844;2024-02-14T08:20:49;4.78;;;3.20;;
50789;SDS011;37287;47.554;7.844;2024-02-14T08:23:16;6.57;;;3.40;;
50789;SDS011;37287;47.554;7.844;2024-02-14T08:25:43;5.55;;;3.60;;
50789;SDS011;37287;47.554;7.844;2024-02-14T08:28:10;3.65;;;2.97;;
50789;SDS011;37287;47.554;7.844;2024-02-14T08:30:36;4.80;;;3.33;;
50789;SDS011;37287;47.554;7.844;2024-02-14T08:33:04;6.20;;;2.83;;
50789;SDS011;37287;47.554;7.844;2024-02-14T08:35:31;3.53;;;2.63;;
50789;SDS011;37287;47.554;7.844;2024-02-14T08:38:07;3.13;;;2.70;;
50789;SDS011;37287;47.554;7.844;2024-02-14T08:40:34;5.20;;;2.60;;
50789;SDS011;37287;47.554;7.844;2024-02-14T08:43:01;5.50;;;3.08;;
50789;SDS011;37287;47.554;7.844;2024-02-14T08:45:28;3.65;;;2.92;;
50789;SDS011;37287;47.554;7.844;2024-02-14T08:47:56;4.07;;;2.95;;
50789;SDS011;37287;47.554;7.844;2024-02-14T08:50:23;7.45;;;3.13;;
50789;SDS011;37287;47.554;7.844;2024-02-14T08:52:50;3.28;;;2.97;;
50789;SDS011;37287;47.554;7.844;2024-02-14T08:55:16;5.78;;;3.08;;
50789;SDS011;37287;47.554;7.844;2024-02-14T08:57:45;3.67;;;2.70;;
50789;SDS011;37287;47.554;7.844;2024-02-14T09:00:14;4.38;;;3.05;;
50789;SDS011;37287;47.554;7.844;2024-02-14T09:02:47;3.67;;;2.90;;
50789;SDS011;37287;47.554;7.844;2024-02-14T09:05:14;4.18;;;3.20;;
50789;SDS011;37287;47.554;7.844;2024-02-14T09:07:41;3.58;;;2.70;;
50789;SDS011;37287;47.554;7.844;2024-02-14T09:10:08;4.70;;;2.88;;
50789;SDS011;37287;47.554;7.844;2024-02-14T09:12:36;9.20;;;3.03;;
50789;SDS011;37287;47.554;7.844;2024-02-14T09:15:04;3.83;;;2.58;;
50789;SDS011;37287;47.554;7.844;2024-02-14T09:17:31;3.45;;;2.95;;
50789;SDS011;37287;47.554;7.844;2024-02-14T09:19:59;4.60;;;2.92;;
50789;SDS011;37287;47.554;7.844;2024-02-14T09:22:26;5.22;;;2.90;;
50789;SDS011;37287;47.554;7.844;2024-02-14T09:24:53;3.30;;;2.45;;
50789;SDS011;37287;47.554;7.844;2024-02-14T09:27:20;4.07;;;2.33;;
50789;SDS011;37287;47.554;7.844;2024-02-14T09:29:46;5.35;;;2.90;;
50789;SDS011;37287;47.554;7.844;2024-02-14T09:32:13;3.83;;;2.88;;
50789;SDS011;37287;47.554;7.844;2024-02-14T09:34:40;4.22;;;2.67;;
50789;SDS011;37287;47.554;7.844;2024-02-14T09:37:07;3.22;;;2.90;;
50789;SDS011;37287;47.554;7.844;2024-02-14T09:39:33;4.18;;;2.95;;
50789;SDS011;37287;47.554;7.844;2024-02-14T09:42:05;3.47;;;2.80;;
50789;SDS011;37287;47.554;7.844;2024-02-14T09:44:36;4.57;;;2.53;;
50789;SDS011;37287;47.554;7.844;2024-02-14T09:47:04;6.72;;;3.00;;
50789;SDS011;37287;47.554;7.844;2024-02-14T09:49:32;3.50;;;2.70;;
50789;SDS011;37287;47.554;7.844;2024-02-14T09:52:01;5.13;;;2.63;;
50789;SDS011;37287;47.554;7.844;2024-02-14T09:54:29;3.92;;;2.75;;
50789;SDS011;37287;47.554;7.844;2024-02-14T09:56:58;5.57;;;2.85;;
50789;SDS011;37287;47.554;7.844;2024-02-14T09:59:25;4.95;;;2.83;;
50789;SDS011;37287;47.554;7.844;2024-02-14T10:01:52;3.55;;;2.50;;
50789;SDS011;37287;47.554;7.844;2024-02-14T10:04:19;3.30;;;2.47;;
50789;SDS011;37287;47.554;7.844;2024-02-14T10:06:51;7.63;;;2.60;;
50789;SDS011;37287;47.554;7.844;2024-02-14T10:09:18;6.63;;;2.97;;
50789;SDS011;37287;47.554;7.844;2024-02-14T10:11:48;4.32;;;2.40;;
50789;SDS011;37287;47.554;7.844;2024-02-14T10:14:15;3.05;;;2.47;;
50789;SDS011;37287;47.554;7.844;2024-02-14T10:16:42;3.90;;;2.58;;
50789;SDS011;37287;47.554;7.844;2024-02-14T10:19:15;3.13;;;2.20;;
50789;SDS011;37287;47.554;7.844;2024-02-14T10:21:44;2.40;;;2.20;;
50789;SDS011;37287;47.554;7.844;2024-02-14T10:24:24;3.33;;;2.88;;
50789;SDS011;37287;47.554;7.844;2024-02-14T10:26:51;7.53;;;2.20;;
50789;SDS011;37287;47.554;7.844;2024-02-14T10:29:20;2.10;;;1.90;;
50789;SDS011;37287;47.554;7.844;2024-02-14T10:31:49;3.03;;;2.40;;
50789;SDS011;37287;47.554;7.844;2024-02-14T10:34:16;7.57;;;2.42;;
50789;SDS011;37287;47.554;7.844;2024-02-14T10:37:08;3.67;;;2.30;;
50789;SDS011;37287;47.554;7.844;2024-02-14T10:39:36;3.20;;;2.20;;
50789;SDS011;37287;47.554;7.844;2024-02-14T10:42:04;2.92;;;2.28;;
50789;SDS011;37287;47.554;7.844;2024-02-14T10:44:34;2.80;;;2.30;;
50789;SDS011;37287;47.554;7.844;2024-02-14T10:47:02;4.45;;;2.42;;
50789;SDS011;37287;47.554;7.844;2024-02-14T10:49:33;3.40;;;2.20;;
50789;SDS011;37287;47.554;7.844;2024-02-14T10:52:03;5.50;;;2.10;;
50789;SDS011;37287;47.554;7.844;2024-02-14T10:54:34;3.92;;;2.50;;
50789;SDS011;37287;47.554;7.844;2024-02-14T10:57:04;3.13;;;2.15;;
50789;SDS011;37287;47.554;7.844;2024-02-14T10:59:43;6.63;;;2.30;;
50789;SDS011;37287;47.554;7.844;2024-02-14T11:02:12;2.85;;;2.13;;
50789;SDS011;37287;47.554;7.844;2024-02-14T11:04:40;3.35;;;2.17;;
50789;SDS011;37287;47.554;7.844;2024-02-14T11:07:10;2.40;;;1.90;;
50789;SDS011;37287;47.554;7.844;2024-02-14T11:09:36;3.65;;;1.90;;
50789;SDS011;37287;47.554;7.844;2024-02-14T11:12:08;2.20;;;2.00;;
50789;SDS011;37287;47.554;7.844;2024-02-14T11:14:36;2.75;;;1.90;;
50789;SDS011;37287;47.554;7.844;2024-02-14T11:17:09;2.30;;;2.10;;
50789;SDS011;37287;47.554;7.844;2024-02-14T11:19:36;3.90;;;1.80;;
50789;SDS011;37287;47.554;7.844;2024-02-14T11:22:13;1.80;;;1.70;;
50789;SDS011;37287;47.554;7.844;2024-02-14T11:24:47;2.47;;;1.90;;
50789;SDS011;37287;47.554;7.844;2024-02-14T11:27:17;2.88;;;1.90;;
50789;SDS011;37287;47.554;7.844;2024-02-14T11:29:59;2.47;;;1.80;;
50789;SDS011;37287;47.554;7.844;2024-02-14T11:32:27;3.22;;;1.80;;
50789;SDS011;37287;47.554;7.844;2024-02-14T11:34:55;2.72;;;2.10;;
50789;SDS011;37287;47.554;7.844;2024-02-14T11:37:31;2.33;;;1.73;;
50789;SDS011;37287;47.554;7.844;2024-02-14T11:39:58;2.97;;;2.00;;
50789;SDS011;37287;47.554;7.844;2024-02-14T11:42:25;4.55;;;1.90;;
50789;SDS011;37287;47.554;7.844;2024-02-14T11:44:52;2.13;;;1.70;;
50789;SDS011;37287;47.554;7.844;2024-02-14T11:47:22;3.38;;;1.77;;
50789;SDS011;37287;47.554;7.844;2024-02-14T11:49:49;4.90;;;1.77;;
50789;SDS011;37287;47.554;7.844;2024-02-14T11:52:17;1.48;;;1.38;;
50789;SDS011;37287;47.554;7.844;2024-02-14T11:54:46;3.95;;;1.52;;
50789;SDS011;37287;47.554;7.844;2024-02-14T11:57:17;1.73;;;1.48;;
50789;SDS011;37287;47.554;7.844;2024-02-14T11:59:45;1.98;;;1.40;;
50789;SDS011;37287;47.554;7.844;2024-02-14T12:02:17;2.53;;;1.63;;
50789;SDS011;37287;47.554;7.844;2024-02-14T12:04:46;1.60;;;1.50;;
50789;SDS011;37287;47.554;7.844;2024-02-14T12:07:17;2.60;;;1.50;;
50789;SDS011;37287;47.554;7.844;2024-02-14T12:09:45;1.60;;;1.50;;
50789;SDS011;37287;47.554;7.844;2024-02-14T12:12:12;2.28;;;1.60;;
50789;SDS011;37287;47.554;7.844;2024-02-14T12:14:39;2.35;;;1.80;;
50789;SDS011;37287;47.554;7.844;2024-02-14T12:17:06;3.17;;;1.52;;
50789;SDS011;37287;47.554;7.844;2024-02-14T12:19:33;2.78;;;1.80;;
50789;SDS011;37287;47.554;7.844;2024-02-14T12:22:01;3.25;;;1.80;;
50789;SDS011;37287;47.554;7.844;2024-02-14T12:24:28;3.15;;;1.90;;
50789;SDS011;37287;47.554;7.844;2024-02-14T12:26:55;2.28;;;1.60;;
50789;SDS011;37287;47.554;7.844;2024-02-14T12:29:23;1.52;;;1.30;;
50789;SDS011;37287;47.554;7.844;2024-02-14T12:31:50;2.35;;;1.55;;
50789;SDS011;37287;47.554;7.844;2024-02-14T12:34:17;2.22;;;1.58;;
50789;SDS011;37287;47.554;7.844;2024-02-14T12:36:50;2.45;;;1.33;;
50789;SDS011;37287;47.554;7.844;2024-02-14T12:39:17;2.22;;;1.60;;
50789;SDS011;37287;47.554;7.844;2024-02-14T12:41:44;2.05;;;1.30;;
50789;SDS011;37287;47.554;7.844;2024-02-14T12:44:11;1.88;;;1.40;;
50789;SDS011;37287;47.554;7.844;2024-02-14T12:46:38;3.47;;;1.50;;
50789;SDS011;37287;47.554;7.844;2024-02-14T12:49:05;1.98;;;1.50;;
50789;SDS011;37287;47.554;7.844;2024-02-14T12:51:32;4.03;;;1.40;;
50789;SDS011;37287;47.554;7.844;2024-02-14T12:53:59;2.00;;;1.35;;
50789;SDS011;37287;47.554;7.844;2024-02-14T12:56:26;2.13;;;1.48;;
50789;SDS011;37287;47.554;7.844;2024-02-14T12:58:53;1.60;;;1.20;;
50789;SDS011;37287;47.554;7.844;2024-02-14T13:01:20;2.95;;;1.70;;
50789;SDS011;37287;47.554;7.844;2024-02-14T13:03:47;3.78;;;1.60;;
50789;SDS011;37287;47.554;7.844;2024-02-14T13:06:13;2.53;;;1.30;;
50789;SDS011;37287;47.554;7.844;2024-02-14T13:08:41;2.05;;;1.40;;
50789;SDS011;37287;47.554;7.844;2024-02-14T13:11:08;3.80;;;1.40;;
50789;SDS011;37287;47.554;7.844;2024-02-14T13:13:35;1.77;;;1.33;;
50789;SDS011;37287;47.554;7.844;2024-02-14T13:16:03;1.38;;;1.27;;
50789;SDS011;37287;47.554;7.844;2024-02-14T13:18:33;1.30;;;1.17;;
50789;SDS011;37287;47.554;7.844;2024-02-14T13:21:02;3.22;;;1.25;;
50789;SDS011;37287;47.554;7.844;2024-02-14T13:23:29;1.70;;;0.93;;
50789;SDS011;37287;47.554;7.844;2024-02-14T13:25:56;1.02;;;0.98;;
50789;SDS011;37287;47.554;7.844;2024-02-14T13:28:23;1.15;;;1.00;;
50789;SDS011;37287;47.554;7.844;2024-02-14T13:30:49;1.48;;;1.05;;
50789;SDS011;37287;47.554;7.844;2024-02-14T13:33:18;1.67;;;1.48;;
50789;SDS011;37287;47.554;7.844;2024-02-14T13:35:45;1.95;;;1.13;;
50789;SDS011;37287;47.554;7.844;2024-02-14T13:38:12;3.63;;;1.50;;
50789;SDS011;37287;47.554;7.844;2024-02-14T13:40:39;1.58;;;1.27;;
50789;SDS011;37287;47.554;7.844;2024-02-14T13:43:06;1.30;;;1.20;;
50789;SDS011;37287;47.554;7.844;2024-02-14T13:45:44;4.82;;;1.33;;
50789;SDS011;37287;47.554;7.844;2024-02-14T13:48:14;2.05;;;1.45;;
50789;SDS011;37287;47.554;7.844;2024-02-14T13:50:41;1.38;;;1.20;;
50789;SDS011;37287;47.554;7.844;2024-02-14T13:53:09;2.28;;;2.00;;
50789;SDS011;37287;47.554;7.844;2024-02-14T13:55:37;2.42;;;1.63;;
50789;SDS011;37287;47.554;7.844;2024-02-14T13:58:05;2.70;;;1.40;;
50789;SDS011;37287;47.554;7.844;2024-02-14T14:00:32;3.13;;;1.30;;
50789;SDS011;37287;47.554;7.844;2024-02-14T14:03:00;2.08;;;1.35;;
50789;SDS011;37287;47.554;7.844;2024-02-14T14:05:27;2.33;;;1.27;;
50789;SDS011;37287;47.554;7.844;2024-02-14T14:07:54;2.20;;;1.45;;
50789;SDS011;37287;47.554;7.844;2024-02-14T14:10:25;3.00;;;1.30;;
50789;SDS011;37287;47.554;7.844;2024-02-14T14:12:53;2.38;;;1.30;;
50789;SDS011;37287;47.554;7.844;2024-02-14T14:15:20;2.80;;;1.17;;
50789;SDS011;37287;47.554;7.844;2024-02-14T14:17:49;2.00;;;1.25;;
50789;SDS011;37287;47.554;7.844;2024-02-14T14:20:16;1.42;;;1.10;;
50789;SDS011;37287;47.554;7.844;2024-02-14T14:22:45;1.77;;;1.23;;
50789;SDS011;37287;47.554;7.844;2024-02-14T14:25:11;1.08;;;1.00;;
50789;SDS011;37287;47.554;7.844;2024-02-14T14:27:38;1.77;;;1.17;;
50789;SDS011;37287;47.554;7.844;2024-02-14T14:30:05;1.95;;;1.20;;
50789;SDS011;37287;47.554;7.844;2024-02-14T14:32:33;1.33;;;1.23;;
50789;SDS011;37287;47.554;7.844;2024-02-14T14:35:00;1.30;;;1.05;;
50789;SDS011;37287;47.554;7.844;2024-02-14T14:37:27;2.22;;;1.08;;
50789;SDS011;37287;47.554;7.844;2024-02-14T14:39:54;2.88;;;1.10;;
50789;SDS011;37287;47.554;7.844;2024-02-14T14:42:22;2.58;;;1.20;;
50789;SDS011;37287;47.554;7.844;2024-02-14T14:44:49;1.38;;;1.20;;
50789;SDS011;37287;47.554;7.844;2024-02-14T14:47:16;0.90;;;0.90;;
50789;SDS011;37287;47.554;7.844;2024-02-14T14:49:43;3.53;;;1.27;;
50789;SDS011;37287;47.554;7.844;2024-02-14T14:52:10;1.73;;;1.20;;
50789;SDS011;37287;47.554;7.844;2024-02-14T14:54:37;1.60;;;1.13;;